Hovedside
METAR-TAF:

METAR-TAF

Lufthavner :

Ivalo, Finland

Ivalo lufthavn

breddegrad: 68-37N, lengdegrad: 027-25E, høyde over havet: 147 m

Gjeldene værobservasjon

Denne rapporten ble laget for 14 minutter siden, klokken 21:50 UTC
Vind 2 kt fra Sør
Temperatur 12°C
Luftfuktighet 82%
Trykk 1012 hPa
Sikt 10 km eller mer
ingen skyer under 1500 m og ingen bygeskyer

METAR: EFIV 182150Z AUTO 19002KT CAVOK 12/09 Q1012

Tid: 01:04 (22:04 UTC)

Varsel

Denne rapporten ble laget for 10 timer og 39 minutter siden, klokken 11:25 UTC
Varsel gyldig fra 18. klokken 12 UTC til 18. klokken 16 UTC
Vind 8 kt fra Sør-sørvest
Sikt 10 km eller mer
ingen skyer under 1500 m og ingen bygeskyer

TAF: EFIV 181125Z 1812/1816 20008KT CAVOK

Værobservasjoner og værvarsel for over 4000 flyplasser (METAR- og TAF-rapporter).

Tilgjengelige stasjoner er representert av de røde og gule prikkene på kartet.

Hold musepekeren over prikken for å se navnet på stasjonen.

Klikk så for å se værobservasjoner og -varsler.

For å forandre kartet kan du klikke på den grønne knappen med svart kryss for å zoome inn, på den grønne knappen med strek for å zoome ut, eller på de grønne pilene for å se tilstøtende kart.


METAR-TAF: